Time;durP1;ratioP1;P1;durP2;ratioP2;P2;SDS_P1;SDS_P2;PMS_P1;PMS_P2;Temp;Humidity;BMP_temperature;BMP_pressure;BME280_temperature;BME280_humidity;BME280_pressure;Samples;Min_cycle;Max_cycle;Signal;HPM_P1;HPM_P2
2023/11/26 00:02:23;;;;;;;11.88;1.90;;;;;;;;;;5032494;28;20128;-68
2023/11/26 00:04:49;;;;;;;12.90;2.63;;;;;;;;;;5029348;28;20049;-68
2023/11/26 00:07:16;;;;;;;8.70;2.00;;;;;;;;;;5030152;28;20041;-68
2023/11/26 00:09:42;;;;;;;4.45;1.83;;;;;;;;;;5003911;28;20515;-68
2023/11/26 00:12:08;;;;;;;9.02;1.88;;;;;;;;;;5033009;28;20107;-68
2023/11/26 00:14:38;;;;;;;4.82;1.67;;;;;;;;;;5019655;28;20130;-68
2023/11/26 00:17:05;;;;;;;6.28;1.67;;;;;;;;;;5023200;28;20045;-69
2023/11/26 00:19:34;;;;;;;8.10;1.90;;;;;;;;;;5041245;28;20048;-68
2023/11/26 00:22:00;;;;;;;7.28;1.98;;;;;;;;;;5023384;28;20060;-68
2023/11/26 00:24:26;;;;;;;9.18;3.15;;;;;;;;;;5023218;28;20072;-68
2023/11/26 00:26:52;;;;;;;8.00;1.80;;;;;;;;;;5027631;28;20087;-68
2023/11/26 00:29:19;;;;;;;8.30;1.85;;;;;;;;;;5028784;28;20099;-68
2023/11/26 00:31:45;;;;;;;6.13;1.80;;;;;;;;;;5045590;28;20124;-68
2023/11/26 00:34:11;;;;;;;7.20;1.60;;;;;;;;;;5029250;28;20403;-68
2023/11/26 00:36:38;;;;;;;15.82;2.10;;;;;;;;;;5046697;28;20044;-68
2023/11/26 00:39:04;;;;;;;7.90;2.03;;;;;;;;;;5042871;28;20036;-68
2023/11/26 00:41:30;;;;;;;5.50;2.10;;;;;;;;;;5022972;28;20111;-69
2023/11/26 00:43:56;;;;;;;7.07;1.52;;;;;;;;;;5023037;28;20064;-68
2023/11/26 00:46:22;;;;;;;8.75;1.90;;;;;;;;;;5026169;28;20045;-69
2023/11/26 00:48:48;;;;;;;12.73;2.63;;;;;;;;;;5045245;28;20129;-68
2023/11/26 00:51:19;;;;;;;10.80;1.90;;;;;;;;;;5030112;28;20112;-68
2023/11/26 00:53:46;;;;;;;7.15;1.52;;;;;;;;;;5048357;28;20041;-68
2023/11/26 00:56:12;;;;;;;6.90;2.15;;;;;;;;;;5029233;28;20044;-68
2023/11/26 00:58:38;;;;;;;10.75;1.75;;;;;;;;;;5014816;28;20044;-68
2023/11/26 01:01:04;;;;;;;7.85;2.30;;;;;;;;;;5049629;28;20211;-68
2023/11/26 01:03:30;;;;;;;10.98;2.30;;;;;;;;;;5031921;28;20041;-68
2023/11/26 01:05:57;;;;;;;12.18;1.83;;;;;;;;;;5031983;28;20037;-68
2023/11/26 01:08:24;;;;;;;6.72;1.75;;;;;;;;;;5050475;28;20045;-68
2023/11/26 01:10:51;;;;;;;11.45;2.15;;;;;;;;;;5026223;28;20052;-68
2023/11/26 01:13:17;;;;;;;5.43;1.50;;;;;;;;;;5045916;28;20045;-68
2023/11/26 01:15:44;;;;;;;11.38;1.95;;;;;;;;;;5029006;28;20484;-68
2023/11/26 01:18:10;;;;;;;4.45;1.25;;;;;;;;;;5028025;28;20092;-68
2023/11/26 01:20:36;;;;;;;7.50;1.80;;;;;;;;;;5026854;28;20056;-68
2023/11/26 01:23:02;;;;;;;6.72;1.70;;;;;;;;;;5029327;28;20120;-68
2023/11/26 01:25:28;;;;;;;6.68;2.25;;;;;;;;;;5046811;28;20060;-68
2023/11/26 01:27:54;;;;;;;4.90;1.50;;;;;;;;;;5027814;28;20508;-68
2023/11/26 01:30:21;;;;;;;8.50;1.55;;;;;;;;;;5028930;28;20037;-68
2023/11/26 01:32:47;;;;;;;10.48;1.75;;;;;;;;;;5046439;28;20047;-68
2023/11/26 01:35:13;;;;;;;5.25;1.63;;;;;;;;;;5028012;28;20044;-68
2023/11/26 01:37:40;;;;;;;8.35;1.80;;;;;;;;;;5027681;28;20140;-68
2023/11/26 01:40:09;;;;;;;6.43;1.80;;;;;;;;;;5025757;28;20484;-68
2023/11/26 01:42:35;;;;;;;9.15;2.10;;;;;;;;;;5043141;28;20062;-68
2023/11/26 01:45:02;;;;;;;8.25;1.40;;;;;;;;;;5026152;28;20660;-68
2023/11/26 01:47:28;;;;;;;4.82;1.42;;;;;;;;;;5020455;28;20435;-68
2023/11/26 01:49:54;;;;;;;4.55;1.50;;;;;;;;;;5020972;28;20041;-68
2023/11/26 01:52:21;;;;;;;8.90;2.33;;;;;;;;;;5024241;28;20135;-68
2023/11/26 01:54:48;;;;;;;8.48;1.83;;;;;;;;;;5022972;28;20144;-68
2023/11/26 01:57:16;;;;;;;15.10;2.03;;;;;;;;;;5020879;28;20098;-68
2023/11/26 01:59:43;;;;;;;10.25;2.33;;;;;;;;;;5023944;28;20044;-68
2023/11/26 02:02:10;;;;;;;11.90;2.92;;;;;;;;;;5043658;28;20045;-68
2023/11/26 02:04:37;;;;;;;10.10;1.30;;;;;;;;;;5026507;28;20473;-68
2023/11/26 02:07:03;;;;;;;9.75;1.55;;;;;;;;;;5028018;28;20439;-68
2023/11/26 02:09:29;;;;;;;7.07;1.65;;;;;;;;;;5022337;28;20045;-68
2023/11/26 02:11:56;;;;;;;10.02;1.27;;;;;;;;;;5018228;28;20048;-68
2023/11/26 02:14:23;;;;;;;11.07;2.17;;;;;;;;;;5027031;28;20440;-68
2023/11/26 02:16:49;;;;;;;6.25;1.00;;;;;;;;;;5025228;28;20048;-68
2023/11/26 02:19:25;;;;;;;8.18;1.27;;;;;;;;;;5042551;28;20066;-68
2023/11/26 02:21:52;;;;;;;3.83;0.85;;;;;;;;;;5042907;28;20076;-68
2023/11/26 02:24:22;;;;;;;6.00;1.50;;;;;;;;;;5043983;28;20122;-68
2023/11/26 02:26:49;;;;;;;5.75;0.95;;;;;;;;;;5043583;28;20048;-68
2023/11/26 02:29:16;;;;;;;7.82;1.00;;;;;;;;;;5025419;28;20049;-69
2023/11/26 02:31:42;;;;;;;15.48;1.65;;;;;;;;;;5026731;28;20153;-68
2023/11/26 02:34:08;;;;;;;7.53;1.30;;;;;;;;;;5025573;28;20045;-68
2023/11/26 02:36:34;;;;;;;6.53;0.95;;;;;;;;;;5021690;28;20073;-68
2023/11/26 02:39:00;;;;;;;6.68;1.48;;;;;;;;;;5023857;28;20476;-68
2023/11/26 02:41:27;;;;;;;7.18;1.23;;;;;;;;;;5025354;28;20139;-68
2023/11/26 02:43:53;;;;;;;4.80;1.10;;;;;;;;;;5025221;28;20137;-69
2023/11/26 02:46:19;;;;;;;7.47;1.13;;;;;;;;;;5041460;28;20499;-68
2023/11/26 02:48:46;;;;;;;9.10;1.50;;;;;;;;;;5024531;28;20041;-68
2023/11/26 02:51:12;;;;;;;12.35;0.80;;;;;;;;;;5025264;28;20044;-68
2023/11/26 02:53:38;;;;;;;12.57;1.02;;;;;;;;;;5025366;28;20051;-68
2023/11/26 02:56:05;;;;;;;11.20;2.80;;;;;;;;;;5045117;28;20480;-68
2023/11/26 02:58:31;;;;;;;8.30;0.95;;;;;;;;;;5026940;28;20092;-68
2023/11/26 03:00:57;;;;;;;3.00;0.82;;;;;;;;;;5029079;28;20053;-68
2023/11/26 03:03:23;;;;;;;8.85;1.13;;;;;;;;;;5028620;28;20132;-68
2023/11/26 03:05:50;;;;;;;11.43;0.88;;;;;;;;;;5028234;28;20114;-68
2023/11/26 03:08:21;;;;;;;10.45;1.55;;;;;;;;;;5047929;28;21697;-68
2023/11/26 03:13:34;;;;;;;12.23;2.55;;;;;;;;;;5028106;28;20389;-68
2023/11/26 03:16:00;;;;;;;10.80;1.20;;;;;;;;;;5028646;28;20131;-68
2023/11/26 03:18:26;;;;;;;9.00;1.15;;;;;;;;;;5043443;28;20049;-68
2023/11/26 03:20:52;;;;;;;14.63;1.40;;;;;;;;;;5025732;28;20130;-68
2023/11/26 03:23:19;;;;;;;8.68;1.10;;;;;;;;;;5024510;28;20063;-68
2023/11/26 03:25:46;;;;;;;6.97;1.15;;;;;;;;;;5043366;28;20120;-68
2023/11/26 03:28:13;;;;;;;4.20;0.90;;;;;;;;;;5025247;28;20080;-68
2023/11/26 03:30:39;;;;;;;9.82;1.42;;;;;;;;;;5024363;28;20063;-68
2023/11/26 03:33:07;;;;;;;3.85;1.00;;;;;;;;;;5025798;28;20111;-68
2023/11/26 03:35:33;;;;;;;6.22;0.98;;;;;;;;;;5043686;28;20120;-68
2023/11/26 03:37:59;;;;;;;9.23;1.63;;;;;;;;;;5010549;28;20484;-68
2023/11/26 03:40:25;;;;;;;10.05;1.20;;;;;;;;;;5007387;28;20571;-68
2023/11/26 03:42:52;;;;;;;10.15;1.67;;;;;;;;;;5025803;28;20451;-68
2023/11/26 03:45:18;;;;;;;5.90;1.20;;;;;;;;;;5043530;28;20037;-69
2023/11/26 03:47:46;;;;;;;9.80;2.22;;;;;;;;;;5008646;28;20099;-68
2023/11/26 03:50:12;;;;;;;7.40;1.15;;;;;;;;;;5009330;28;20088;-68
2023/11/26 03:52:39;;;;;;;7.55;0.98;;;;;;;;;;5008194;28;20112;-68
2023/11/26 03:55:07;;;;;;;10.15;1.20;;;;;;;;;;5026205;28;20064;-68
2023/11/26 03:57:33;;;;;;;8.98;1.05;;;;;;;;;;5026301;28;20049;-69
2023/11/26 04:00:01;;;;;;;11.90;0.90;;;;;;;;;;5043910;28;20049;-68
2023/11/26 04:02:27;;;;;;;8.48;0.90;;;;;;;;;;5025531;28;20041;-68
2023/11/26 04:04:54;;;;;;;14.77;1.83;;;;;;;;;;5023543;28;20072;-68
2023/11/26 04:07:20;;;;;;;9.45;0.70;;;;;;;;;;5023186;28;20060;-68
2023/11/26 04:09:47;;;;;;;8.13;1.00;;;;;;;;;;5023705;28;20037;-68
2023/11/26 04:12:13;;;;;;;7.28;0.90;;;;;;;;;;5026709;28;20076;-68
2023/11/26 04:14:51;;;;;;;7.22;1.13;;;;;;;;;;5028477;28;20085;-68
2023/11/26 04:17:17;;;;;;;6.32;0.88;;;;;;;;;;5019680;28;20068;-68
2023/11/26 04:19:44;;;;;;;9.30;0.93;;;;;;;;;;5029453;28;20389;-68
2023/11/26 04:22:10;;;;;;;10.63;1.20;;;;;;;;;;5027465;28;20081;-68
2023/11/26 04:24:37;;;;;;;12.73;1.27;;;;;;;;;;5024290;28;20044;-68
2023/11/26 04:27:04;;;;;;;13.20;1.33;;;;;;;;;;5024089;28;20056;-68
2023/11/26 04:29:30;;;;;;;15.80;1.77;;;;;;;;;;5010334;28;20033;-68
2023/11/26 04:31:57;;;;;;;9.07;1.85;;;;;;;;;;5045589;28;20118;-68
2023/11/26 04:34:23;;;;;;;9.52;1.52;;;;;;;;;;5047249;28;20041;-68
2023/11/26 04:36:49;;;;;;;14.05;1.75;;;;;;;;;;5045013;28;20141;-68
2023/11/26 04:39:15;;;;;;;8.85;1.65;;;;;;;;;;5029090;28;20064;-68
2023/11/26 04:41:41;;;;;;;7.30;1.08;;;;;;;;;;5026746;28;20049;-68
2023/11/26 04:44:07;;;;;;;9.02;1.30;;;;;;;;;;5026755;28;20048;-68
2023/11/26 04:46:34;;;;;;;6.03;1.02;;;;;;;;;;5027968;28;20508;-68
2023/11/26 04:49:00;;;;;;;12.73;1.30;;;;;;;;;;5030116;28;20130;-68
2023/11/26 04:51:27;;;;;;;7.63;1.80;;;;;;;;;;5049680;28;20120;-68
2023/11/26 04:53:53;;;;;;;8.07;0.93;;;;;;;;;;5029833;28;20049;-68
2023/11/26 04:56:20;;;;;;;11.32;1.15;;;;;;;;;;5030929;28;20061;-69
2023/11/26 04:58:46;;;;;;;12.02;1.42;;;;;;;;;;5028934;28;20045;-68
2023/11/26 05:01:16;;;;;;;7.18;0.93;;;;;;;;;;5031473;28;20043;-68
2023/11/26 05:03:42;;;;;;;10.80;1.75;;;;;;;;;;5050014;28;20545;-68
2023/11/26 05:06:09;;;;;;;12.27;1.45;;;;;;;;;;5029658;28;20110;-68
2023/11/26 05:08:35;;;;;;;8.20;1.30;;;;;;;;;;5048590;28;20558;-68
2023/11/26 05:11:01;;;;;;;5.57;0.80;;;;;;;;;;5031014;28;20128;-68
2023/11/26 05:13:28;;;;;;;5.35;1.05;;;;;;;;;;5029270;28;20063;-68
2023/11/26 05:15:54;;;;;;;6.38;1.17;;;;;;;;;;5047372;28;20114;-68
2023/11/26 05:18:20;;;;;;;8.30;1.25;;;;;;;;;;5027546;28;20060;-68
2023/11/26 05:20:48;;;;;;;6.22;1.10;;;;;;;;;;5046220;28;20046;-68
2023/11/26 05:23:15;;;;;;;6.60;1.27;;;;;;;;;;5025797;28;20041;-68
2023/11/26 05:25:41;;;;;;;15.23;1.80;;;;;;;;;;5045258;28;20110;-68
2023/11/26 05:28:07;;;;;;;15.05;1.50;;;;;;;;;;5010545;28;20048;-68
2023/11/26 05:30:33;;;;;;;10.50;1.77;;;;;;;;;;5026157;28;20055;-69
2023/11/26 05:32:59;;;;;;;17.63;1.67;;;;;;;;;;5045511;28;20365;-68
2023/11/26 05:35:28;;;;;;;13.93;1.73;;;;;;;;;;5026585;28;20045;-68
2023/11/26 05:37:56;;;;;;;12.13;2.00;;;;;;;;;;5046787;28;20056;-68
2023/11/26 05:40:22;;;;;;;9.18;1.55;;;;;;;;;;5025141;28;20056;-68
2023/11/26 05:42:50;;;;;;;10.63;1.83;;;;;;;;;;5029210;28;20041;-68
2023/11/26 05:45:16;;;;;;;8.77;1.40;;;;;;;;;;5042961;28;20053;-68
2023/11/26 05:47:42;;;;;;;8.40;1.33;;;;;;;;;;5020951;28;20202;-68
2023/11/26 05:50:08;;;;;;;9.80;2.45;;;;;;;;;;5040163;28;20044;-68
2023/11/26 05:52:35;;;;;;;12.98;2.08;;;;;;;;;;5036786;28;20194;-68
2023/11/26 05:55:01;;;;;;;13.85;2.40;;;;;;;;;;5021411;28;20175;-68
2023/11/26 05:57:28;;;;;;;11.43;2.22;;;;;;;;;;5025172;28;20044;-68
2023/11/26 05:59:54;;;;;;;9.18;2.50;;;;;;;;;;5042666;28;20045;-68
2023/11/26 06:02:20;;;;;;;9.52;2.05;;;;;;;;;;5024554;28;20055;-68
2023/11/26 06:04:46;;;;;;;11.00;1.85;;;;;;;;;;5026366;28;20413;-68
2023/11/26 06:07:13;;;;;;;6.97;1.13;;;;;;;;;;5027683;28;20053;-68
2023/11/26 06:09:39;;;;;;;12.75;1.40;;;;;;;;;;5026851;28;20040;-68
2023/11/26 06:12:06;;;;;;;13.02;1.20;;;;;;;;;;5043184;28;20571;-68
2023/11/26 06:14:33;;;;;;;6.25;1.30;;;;;;;;;;5045363;28;20044;-68
2023/11/26 06:16:59;;;;;;;10.82;1.50;;;;;;;;;;5021639;28;20053;-68
2023/11/26 06:19:26;;;;;;;13.18;1.40;;;;;;;;;;5025593;28;20098;-68
2023/11/26 06:21:52;;;;;;;10.23;1.40;;;;;;;;;;5027701;28;20041;-68
2023/11/26 06:24:18;;;;;;;12.73;3.05;;;;;;;;;;5024282;28;20456;-68
2023/11/26 06:26:44;;;;;;;12.45;1.50;;;;;;;;;;5025142;28;20124;-68
2023/11/26 06:29:11;;;;;;;17.52;2.03;;;;;;;;;;5026524;28;20048;-68
2023/11/26 06:31:37;;;;;;;14.57;1.60;;;;;;;;;;5046315;28;20502;-68
2023/11/26 06:34:03;;;;;;;12.70;2.00;;;;;;;;;;5045568;28;20369;-68
2023/11/26 06:36:30;;;;;;;12.85;2.13;;;;;;;;;;5044799;28;20043;-69
2023/11/26 06:38:56;;;;;;;16.25;2.35;;;;;;;;;;5046786;28;20040;-68
2023/11/26 06:41:24;;;;;;;16.80;2.28;;;;;;;;;;5025899;28;20404;-69
2023/11/26 06:43:51;;;;;;;13.27;2.33;;;;;;;;;;5026465;28;20087;-69
2023/11/26 06:46:18;;;;;;;14.73;2.42;;;;;;;;;;5027895;28;20373;-68
2023/11/26 06:48:45;;;;;;;8.20;2.25;;;;;;;;;;5027088;28;20056;-68
2023/11/26 06:51:12;;;;;;;13.70;2.13;;;;;;;;;;5044276;28;20118;-68
2023/11/26 06:53:39;;;;;;;17.70;2.60;;;;;;;;;;5027791;28;20486;-68
2023/11/26 06:56:05;;;;;;;13.27;1.88;;;;;;;;;;5027729;28;20045;-69
2023/11/26 06:58:32;;;;;;;11.85;1.90;;;;;;;;;;5045761;28;20041;-68
2023/11/26 07:00:58;;;;;;;17.42;2.28;;;;;;;;;;5045024;28;20110;-68
2023/11/26 07:03:25;;;;;;;15.23;2.08;;;;;;;;;;5027509;28;20080;-68
2023/11/26 07:05:51;;;;;;;12.60;1.83;;;;;;;;;;5025258;28;20061;-68
2023/11/26 07:08:17;;;;;;;15.38;2.25;;;;;;;;;;5010250;28;20037;-68
2023/11/26 07:10:43;;;;;;;13.77;2.38;;;;;;;;;;5044858;28;20649;-69
2023/11/26 07:13:10;;;;;;;14.93;1.88;;;;;;;;;;5044396;28;20083;-68
2023/11/26 07:15:38;;;;;;;8.90;2.08;;;;;;;;;;5027180;28;20349;-69
2023/11/26 07:18:04;;;;;;;13.10;1.60;;;;;;;;;;5023305;28;20124;-68
2023/11/26 07:20:30;;;;;;;14.77;1.80;;;;;;;;;;5024543;28;20460;-68
2023/11/26 07:22:57;;;;;;;11.52;2.15;;;;;;;;;;5046234;28;20106;-68
2023/11/26 07:25:23;;;;;;;8.95;1.50;;;;;;;;;;5024583;28;20097;-68
2023/11/26 07:27:51;;;;;;;10.38;1.52;;;;;;;;;;5011162;28;20052;-68
2023/11/26 07:30:17;;;;;;;12.10;1.67;;;;;;;;;;5023266;28;20059;-68
2023/11/26 07:32:44;;;;;;;15.70;2.08;;;;;;;;;;5043771;28;20045;-68
2023/11/26 07:35:10;;;;;;;14.60;1.67;;;;;;;;;;5042971;28;20442;-68
2023/11/26 07:37:36;;;;;;;15.48;1.92;;;;;;;;;;5024627;28;20052;-68
2023/11/26 07:40:05;;;;;;;14.38;1.98;;;;;;;;;;5024317;28;20500;-68
2023/11/26 07:42:33;;;;;;;13.23;1.90;;;;;;;;;;5027685;28;20045;-68
2023/11/26 07:44:59;;;;;;;11.43;2.17;;;;;;;;;;5028839;28;20064;-68
2023/11/26 07:47:26;;;;;;;14.18;1.42;;;;;;;;;;5026887;28;20049;-69
2023/11/26 07:49:52;;;;;;;13.50;1.90;;;;;;;;;;5031689;28;20051;-68
2023/11/26 07:52:18;;;;;;;18.27;3.53;;;;;;;;;;5032902;28;20048;-69
2023/11/26 07:54:44;;;;;;;12.05;1.55;;;;;;;;;;5032056;28;20128;-71
2023/11/26 07:57:10;;;;;;;13.10;1.80;;;;;;;;;;5033753;28;20424;-69
2023/11/26 07:59:36;;;;;;;18.25;2.65;;;;;;;;;;5033079;28;20473;-67
2023/11/26 08:02:08;;;;;;;17.75;2.47;;;;;;;;;;5045913;28;20059;-68
2023/11/26 08:04:34;;;;;;;17.45;1.70;;;;;;;;;;5048580;28;20064;-80
2023/11/26 08:07:01;;;;;;;13.40;2.15;;;;;;;;;;5029006;28;20037;-68
2023/11/26 08:09:30;;;;;;;10.18;1.95;;;;;;;;;;5033503;28;20052;-69
2023/11/26 08:11:59;;;;;;;15.27;2.17;;;;;;;;;;5033620;28;20052;-67
2023/11/26 08:14:25;;;;;;;13.23;1.90;;;;;;;;;;5048704;28;20457;-68
2023/11/26 08:16:54;;;;;;;11.75;1.88;;;;;;;;;;5031000;28;20067;-68
2023/11/26 08:19:23;;;;;;;16.20;2.28;;;;;;;;;;5032879;28;20037;-68
2023/11/26 08:21:50;;;;;;;6.85;2.20;;;;;;;;;;5030431;28;20352;-68
2023/11/26 08:24:20;;;;;;;18.15;2.47;;;;;;;;;;5051252;28;20107;-68
2023/11/26 08:26:47;;;;;;;15.23;2.72;;;;;;;;;;5032689;28;20045;-68
2023/11/26 08:29:16;;;;;;;15.45;1.88;;;;;;;;;;5032015;28;20048;-68
2023/11/26 08:31:44;;;;;;;10.88;2.05;;;;;;;;;;5032594;28;20040;-68
2023/11/26 08:34:15;;;;;;;15.02;2.63;;;;;;;;;;5030386;28;20045;-69
2023/11/26 08:36:42;;;;;;;18.52;2.55;;;;;;;;;;5030541;28;20049;-68
2023/11/26 08:39:14;;;;;;;17.65;2.10;;;;;;;;;;5032055;28;20049;-68
2023/11/26 08:41:42;;;;;;;14.38;1.83;;;;;;;;;;5032918;28;20063;-69
2023/11/26 08:44:09;;;;;;;14.05;2.53;;;;;;;;;;5030444;28;20041;-70
2023/11/26 08:46:37;;;;;;;14.95;2.50;;;;;;;;;;5048609;28;20048;-65
2023/11/26 08:49:03;;;;;;;12.98;2.55;;;;;;;;;;5028578;28;20125;-65
2023/11/26 08:51:32;;;;;;;12.70;2.75;;;;;;;;;;5027911;28;20051;-65
2023/11/26 08:53:59;;;;;;;12.32;2.22;;;;;;;;;;5043752;28;20203;-65
2023/11/26 08:56:25;;;;;;;17.73;3.13;;;;;;;;;;5045837;28;20044;-65
2023/11/26 08:58:52;;;;;;;15.60;2.75;;;;;;;;;;5027017;28;21420;-65
2023/11/26 09:01:18;;;;;;;12.65;3.45;;;;;;;;;;5027090;28;20060;-65
2023/11/26 09:03:44;;;;;;;12.98;2.10;;;;;;;;;;5027932;28;20443;-64
2023/11/26 09:06:11;;;;;;;9.93;2.55;;;;;;;;;;5013968;28;20040;-68
2023/11/26 09:08:37;;;;;;;5.70;0.70;;;;;;;;;;5047045;28;20356;-68
2023/11/26 09:11:03;;;;;;;1.98;0.60;;;;;;;;;;5031227;28;20037;-69
2023/11/26 09:13:29;;;;;;;5.30;1.02;;;;;;;;;;5049048;28;20516;-69
2023/11/26 09:15:56;;;;;;;6.82;0.98;;;;;;;;;;5030884;28;20138;-69
2023/11/26 09:18:22;;;;;;;5.90;0.70;;;;;;;;;;5030154;28;20144;-69
2023/11/26 09:20:48;;;;;;;11.73;1.13;;;;;;;;;;5031996;28;20063;-69
2023/11/26 09:23:15;;;;;;;10.32;1.67;;;;;;;;;;5030938;28;20044;-69
2023/11/26 09:25:41;;;;;;;8.15;1.67;;;;;;;;;;5030397;28;20056;-69
2023/11/26 09:28:09;;;;;;;9.20;1.23;;;;;;;;;;5031281;28;20049;-69
2023/11/26 09:30:35;;;;;;;8.30;1.38;;;;;;;;;;5030917;28;20037;-69
2023/11/26 09:33:02;;;;;;;8.30;1.50;;;;;;;;;;5030635;28;20127;-69
2023/11/26 09:35:28;;;;;;;9.00;1.77;;;;;;;;;;5048731;28;20045;-69
2023/11/26 09:37:55;;;;;;;14.80;2.13;;;;;;;;;;5030732;28;20068;-69
2023/11/26 09:40:21;;;;;;;17.75;2.40;;;;;;;;;;5030366;28;20065;-69
2023/11/26 09:42:54;;;;;;;14.23;2.40;;;;;;;;;;5048246;28;20053;-69
2023/11/26 09:45:20;;;;;;;8.20;1.63;;;;;;;;;;5031427;28;20115;-69
2023/11/26 09:47:47;;;;;;;10.10;1.65;;;;;;;;;;5028108;28;20094;-69
2023/11/26 09:50:13;;;;;;;14.43;1.40;;;;;;;;;;5030380;28;20091;-69
2023/11/26 09:52:40;;;;;;;6.40;1.08;;;;;;;;;;5030537;28;20116;-69
2023/11/26 09:55:08;;;;;;;6.88;1.20;;;;;;;;;;5044982;28;20493;-69
2023/11/26 09:57:35;;;;;;;8.45;1.08;;;;;;;;;;5049530;28;20455;-69
2023/11/26 10:00:01;;;;;;;9.70;1.42;;;;;;;;;;5029626;28;20041;-69
2023/11/26 10:02:27;;;;;;;9.32;1.10;;;;;;;;;;5029908;28;20049;-69
2023/11/26 10:04:54;;;;;;;4.32;1.23;;;;;;;;;;5031305;28;20036;-69
2023/11/26 10:07:32;;;;;;;7.57;1.42;;;;;;;;;;5030014;28;20063;-69
2023/11/26 10:10:10;;;;;;;4.22;1.02;;;;;;;;;;5049498;28;20041;-69
2023/11/26 10:13:04;;;;;;;6.40;0.90;;;;;;;;;;5045369;28;20408;-69
2023/11/26 10:15:32;;;;;;;2.90;0.47;;;;;;;;;;5030133;28;20148;-69
2023/11/26 10:17:59;;;;;;;5.05;0.50;;;;;;;;;;5029659;28;20083;-69
2023/11/26 10:20:26;;;;;;;2.88;0.43;;;;;;;;;;5030076;28;20051;-69
2023/11/26 10:22:53;;;;;;;3.40;0.70;;;;;;;;;;5027320;28;20111;-69
2023/11/26 10:25:19;;;;;;;3.65;0.80;;;;;;;;;;5030259;28;20040;-69
2023/11/26 10:27:47;;;;;;;3.88;0.77;;;;;;;;;;5048090;28;21570;-69
2023/11/26 10:30:24;;;;;;;2.70;0.55;;;;;;;;;;5029293;28;20118;-69
2023/11/26 10:32:55;;;;;;;6.93;1.00;;;;;;;;;;5013780;28;20124;-69
2023/11/26 10:35:22;;;;;;;4.47;1.13;;;;;;;;;;5028846;28;20071;-69
2023/11/26 10:37:48;;;;;;;3.05;0.82;;;;;;;;;;5028760;28;20059;-69
2023/11/26 10:40:14;;;;;;;10.07;1.02;;;;;;;;;;5030502;28;20110;-69
2023/11/26 10:42:41;;;;;;;3.95;0.70;;;;;;;;;;5028418;28;20467;-69
2023/11/26 10:45:08;;;;;;;5.88;1.02;;;;;;;;;;5029684;28;20041;-69
2023/11/26 10:47:36;;;;;;;3.70;1.10;;;;;;;;;;5046241;28;20059;-69
2023/11/26 10:50:06;;;;;;;6.82;0.85;;;;;;;;;;5030458;28;20416;-69
2023/11/26 10:52:38;;;;;;;3.80;0.82;;;;;;;;;;5047399;28;20128;-69
2023/11/26 10:55:08;;;;;;;6.57;0.90;;;;;;;;;;5028810;28;20040;-69
2023/11/26 10:57:39;;;;;;;7.63;1.02;;;;;;;;;;5047044;28;20460;-69
2023/11/26 11:00:07;;;;;;;3.22;0.88;;;;;;;;;;5046282;28;20049;-69
2023/11/26 11:02:35;;;;;;;6.18;0.70;;;;;;;;;;5029459;28;20995;-69
2023/11/26 11:05:01;;;;;;;7.43;2.42;;;;;;;;;;5029300;28;20091;-69
2023/11/26 11:07:29;;;;;;;4.85;0.93;;;;;;;;;;5030653;28;20083;-69
2023/11/26 11:10:02;;;;;;;6.63;0.93;;;;;;;;;;5029776;28;20044;-69
2023/11/26 11:12:36;;;;;;;9.88;1.52;;;;;;;;;;5028621;28;20049;-69
2023/11/26 11:15:03;;;;;;;5.45;1.05;;;;;;;;;;5029592;28;20053;-69
2023/11/26 11:17:30;;;;;;;8.57;0.90;;;;;;;;;;5045952;28;20051;-69
2023/11/26 11:19:56;;;;;;;5.40;1.30;;;;;;;;;;5048040;28;20177;-69
2023/11/26 11:22:33;;;;;;;9.82;1.67;;;;;;;;;;5030329;28;20467;-69
2023/11/26 11:25:10;;;;;;;9.55;1.27;;;;;;;;;;5051574;28;20059;-69
2023/11/26 11:27:54;;;;;;;11.98;3.13;;;;;;;;;;5048298;28;20391;-69
2023/11/26 11:30:33;;;;;;;7.38;1.40;;;;;;;;;;5032697;28;20045;-69
2023/11/26 11:33:03;;;;;;;4.35;0.93;;;;;;;;;;5031377;28;20122;-69
2023/11/26 11:35:37;;;;;;;5.38;0.80;;;;;;;;;;5032704;28;20090;-69
2023/11/26 11:38:04;;;;;;;6.82;1.52;;;;;;;;;;5050800;28;20120;-69
2023/11/26 11:41:00;;;;;;;6.75;1.38;;;;;;;;;;5032195;28;20120;-69
2023/11/26 11:43:27;;;;;;;6.20;0.70;;;;;;;;;;5017520;28;20079;-69
2023/11/26 11:45:54;;;;;;;6.90;0.93;;;;;;;;;;5015903;28;20947;-69
2023/11/26 11:48:39;;;;;;;8.70;0.85;;;;;;;;;;5033253;28;20041;-69
2023/11/26 11:51:24;;;;;;;4.03;0.57;;;;;;;;;;5033352;28;20049;-69
2023/11/26 11:53:50;;;;;;;5.80;0.82;;;;;;;;;;5032693;28;20110;-69
2023/11/26 11:56:19;;;;;;;10.45;0.93;;;;;;;;;;5033324;28;20071;-69
2023/11/26 11:58:45;;;;;;;6.88;1.02;;;;;;;;;;5048583;28;20071;-69
2023/11/26 12:01:13;;;;;;;11.85;1.90;;;;;;;;;;5032150;28;20048;-69
2023/11/26 12:03:40;;;;;;;7.55;1.30;;;;;;;;;;5050518;28;20055;-69
2023/11/26 12:06:12;;;;;;;7.88;1.20;;;;;;;;;;5050665;28;20036;-69
2023/11/26 12:08:38;;;;;;;18.02;3.80;;;;;;;;;;5031752;28;20123;-69
2023/11/26 12:11:10;;;;;;;14.15;2.03;;;;;;;;;;5050461;28;20049;-69
2023/11/26 12:13:43;;;;;;;8.90;2.13;;;;;;;;;;5048472;28;20112;-69
2023/11/26 12:16:09;;;;;;;6.75;1.55;;;;;;;;;;5029707;28;20077;-69
2023/11/26 12:18:36;;;;;;;6.70;1.10;;;;;;;;;;5033620;28;20131;-69
2023/11/26 12:21:03;;;;;;;7.15;1.23;;;;;;;;;;5031348;28;20148;-69
2023/11/26 12:23:30;;;;;;;8.63;1.52;;;;;;;;;;5032333;28;20391;-69
2023/11/26 12:25:58;;;;;;;5.07;0.95;;;;;;;;;;5047642;28;20045;-69
2023/11/26 12:28:25;;;;;;;6.28;1.10;;;;;;;;;;5050279;28;20041;-69
2023/11/26 12:30:55;;;;;;;8.38;1.17;;;;;;;;;;5032978;28;20150;-69
2023/11/26 12:33:21;;;;;;;4.22;0.85;;;;;;;;;;5031446;28;20053;-69
2023/11/26 12:35:49;;;;;;;8.23;0.90;;;;;;;;;;5031177;28;20056;-69
2023/11/26 12:38:15;;;;;;;9.00;1.15;;;;;;;;;;5032155;28;20103;-69
2023/11/26 12:40:42;;;;;;;6.68;1.30;;;;;;;;;;5029799;28;20116;-69
2023/11/26 12:43:09;;;;;;;4.07;1.33;;;;;;;;;;5048695;28;20041;-69
2023/11/26 12:45:35;;;;;;;7.50;1.00;;;;;;;;;;5031972;28;20049;-69
2023/11/26 12:48:01;;;;;;;7.45;2.20;;;;;;;;;;5033119;28;20052;-69
2023/11/26 12:50:41;;;;;;;7.75;1.05;;;;;;;;;;5031523;28;20048;-69
2023/11/26 12:53:12;;;;;;;5.55;0.85;;;;;;;;;;5046835;28;20091;-69
2023/11/26 12:55:44;;;;;;;4.38;0.95;;;;;;;;;;5032400;28;20048;-69
2023/11/26 12:58:17;;;;;;;8.73;1.23;;;;;;;;;;5049585;28;20098;-69
2023/11/26 13:00:43;;;;;;;9.50;1.23;;;;;;;;;;5032098;28;20128;-69
2023/11/26 13:03:10;;;;;;;2.83;1.10;;;;;;;;;;5030684;28;20080;-69
2023/11/26 13:05:37;;;;;;;8.80;1.30;;;;;;;;;;5031444;28;20102;-69
2023/11/26 13:08:17;;;;;;;7.60;2.42;;;;;;;;;;5030114;28;20120;-69
2023/11/26 13:10:45;;;;;;;7.03;1.20;;;;;;;;;;5026678;28;20051;-69
2023/11/26 13:13:13;;;;;;;6.47;1.63;;;;;;;;;;5030713;28;20480;-69
2023/11/26 13:15:41;;;;;;;11.48;2.55;;;;;;;;;;5029054;28;20056;-69
2023/11/26 13:18:11;;;;;;;6.38;1.10;;;;;;;;;;5046533;28;20127;-69
2023/11/26 13:20:38;;;;;;;11.32;1.42;;;;;;;;;;5032231;28;20063;-69
2023/11/26 13:23:04;;;;;;;5.72;0.90;;;;;;;;;;5026008;28;20075;-65
2023/11/26 13:25:34;;;;;;;9.90;1.20;;;;;;;;;;5042154;28;20091;-66
2023/11/26 13:28:00;;;;;;;5.88;1.33;;;;;;;;;;5046168;28;20102;-65
2023/11/26 13:30:26;;;;;;;6.20;1.33;;;;;;;;;;5045633;28;20041;-65
2023/11/26 13:32:53;;;;;;;3.63;1.35;;;;;;;;;;5023273;28;20049;-66
2023/11/26 13:35:19;;;;;;;5.40;1.15;;;;;;;;;;5044947;28;20142;-65
2023/11/26 13:37:46;;;;;;;5.65;1.45;;;;;;;;;;5025891;28;20076;-65
2023/11/26 13:40:15;;;;;;;3.70;1.10;;;;;;;;;;5027300;28;20053;-65
2023/11/26 13:42:43;;;;;;;4.53;1.10;;;;;;;;;;5010123;28;20045;-65
2023/11/26 13:45:09;;;;;;;3.55;0.90;;;;;;;;;;5025352;28;20103;-65
2023/11/26 13:47:35;;;;;;;7.95;1.02;;;;;;;;;;5026078;28;20076;-65
2023/11/26 13:50:01;;;;;;;2.90;0.80;;;;;;;;;;5045741;28;20044;-65
2023/11/26 13:52:28;;;;;;;6.40;0.90;;;;;;;;;;5027180;28;20153;-65
2023/11/26 13:54:54;;;;;;;4.65;1.00;;;;;;;;;;5044179;28;20099;-65
2023/11/26 13:57:20;;;;;;;5.53;1.00;;;;;;;;;;5024271;28;20049;-65
2023/11/26 13:59:46;;;;;;;5.75;1.30;;;;;;;;;;5025258;28;20503;-65
2023/11/26 14:02:13;;;;;;;9.63;3.05;;;;;;;;;;5045230;28;20402;-66
2023/11/26 14:04:40;;;;;;;6.35;1.48;;;;;;;;;;5042642;28;20108;-65
2023/11/26 14:07:06;;;;;;;3.30;1.10;;;;;;;;;;5025666;28;20511;-67
2023/11/26 14:09:32;;;;;;;2.63;0.63;;;;;;;;;;5025101;28;20044;-66
2023/11/26 14:11:58;;;;;;;1.92;0.70;;;;;;;;;;5026169;28;20072;-67
2023/11/26 14:14:27;;;;;;;7.78;1.05;;;;;;;;;;5042926;28;20123;-66
2023/11/26 14:16:56;;;;;;;2.33;0.77;;;;;;;;;;5024157;28;20041;-66
2023/11/26 14:19:22;;;;;;;4.93;1.00;;;;;;;;;;5043616;28;20060;-67
2023/11/26 14:21:51;;;;;;;4.65;0.80;;;;;;;;;;5025231;28;20049;-66
2023/11/26 14:24:19;;;;;;;3.83;1.20;;;;;;;;;;5025091;28;20048;-66
2023/11/26 14:26:46;;;;;;;3.60;0.80;;;;;;;;;;5025731;28;20440;-66
2023/11/26 14:29:12;;;;;;;6.68;1.50;;;;;;;;;;5025403;28;20041;-66
2023/11/26 14:31:38;;;;;;;4.07;1.15;;;;;;;;;;5043493;28;20052;-66
2023/11/26 14:34:05;;;;;;;4.78;1.00;;;;;;;;;;5023483;28;20125;-66
2023/11/26 14:36:32;;;;;;;5.03;1.17;;;;;;;;;;5022392;28;20391;-66
2023/11/26 14:38:58;;;;;;;7.70;0.88;;;;;;;;;;5024667;28;20091;-66
2023/11/26 14:41:25;;;;;;;6.38;1.38;;;;;;;;;;5025576;28;20045;-66
2023/11/26 14:43:52;;;;;;;5.78;1.13;;;;;;;;;;5025171;28;20586;-66